createdAt,value
2019-03-03T00:04:24.230Z,101010.78
2019-03-03T00:09:25.849Z,101004.71
2019-03-03T00:14:27.449Z,100995.16
2019-03-03T00:19:29.291Z,100991.36
2019-03-03T00:24:30.938Z,100976.16
2019-03-03T00:29:32.451Z,100970.98
2019-03-03T00:34:34.044Z,100976.28
2019-03-03T00:39:35.587Z,100972.42
2019-03-03T00:44:37.138Z,100965.38
2019-03-03T00:49:39.125Z,100951.43
2019-03-03T00:54:40.676Z,100940.80
2019-03-03T00:59:42.319Z,100940.67
2019-03-03T01:04:43.911Z,100927.44
2019-03-03T01:09:45.477Z,100925.89
2019-03-03T01:14:47.030Z,100925.41
2019-03-03T01:19:48.600Z,100918.75
2019-03-03T01:24:50.292Z,100921.78
2019-03-03T01:29:51.860Z,100902.88
2019-03-03T01:34:53.753Z,100905.70
2019-03-03T01:39:55.794Z,100899.59
2019-03-03T01:44:57.364Z,100899.10
2019-03-03T01:49:59.290Z,100881.14
2019-03-03T01:55:00.842Z,100879.71
2019-03-03T02:00:02.844Z,100873.47
2019-03-03T02:05:04.610Z,100861.45
2019-03-03T02:10:06.418Z,100853.59
2019-03-03T02:15:08.279Z,100857.36
2019-03-03T02:20:10.008Z,100852.52
2019-03-03T02:25:11.598Z,100862.52
2019-03-03T02:30:14.870Z,100849.48
2019-03-03T02:35:16.394Z,100848.99
2019-03-03T02:40:18.082Z,100838.91
2019-03-03T02:45:20.026Z,100834.52
2019-03-03T02:50:22.013Z,100838.78
2019-03-03T02:55:23.622Z,100832.67
2019-03-03T03:00:25.270Z,100821.33
2019-03-03T03:05:26.800Z,100806.85
2019-03-03T03:10:28.347Z,100813.00
2019-03-03T03:15:29.942Z,100804.69
2019-03-03T03:20:31.567Z,100802.97
2019-03-03T03:25:33.161Z,100778.95
2019-03-03T03:30:34.783Z,100782.39
2019-03-03T03:35:36.698Z,100776.32
2019-03-03T03:40:38.546Z,100771.97
2019-03-03T03:45:40.140Z,100778.16
2019-03-03T03:50:41.651Z,100765.34
2019-03-03T03:55:43.254Z,100769.19
2019-03-03T04:00:44.802Z,100755.09
2019-03-03T04:05:46.791Z,100757.59
2019-03-03T04:10:48.383Z,100752.34
2019-03-03T04:15:50.340Z,100748.95
2019-03-03T04:20:52.364Z,100737.22
2019-03-03T04:25:53.891Z,100742.09
2019-03-03T04:30:55.553Z,100734.84
2019-03-03T04:35:57.437Z,100724.34
2019-03-03T04:40:59.043Z,100722.91
2019-03-03T04:46:00.575Z,100733.78
2019-03-03T04:51:02.194Z,100730.66
2019-03-03T04:56:03.730Z,100731.56
2019-03-03T05:01:05.342Z,100735.91
2019-03-03T05:06:06.909Z,100730.17
2019-03-03T05:11:08.455Z,100729.72
2019-03-03T05:16:10.012Z,100726.45
2019-03-03T05:21:14.715Z,100723.17
2019-03-03T05:26:16.244Z,100724.48
2019-03-03T05:31:17.818Z,100722.27
2019-03-03T05:36:19.370Z,100718.50
2019-03-03T05:41:20.942Z,100730.19
2019-03-03T05:46:22.511Z,100732.10
2019-03-03T05:51:24.423Z,100734.77
2019-03-03T05:56:26.031Z,100729.11
2019-03-03T06:01:27.614Z,100719.52
2019-03-03T06:06:29.324Z,100715.51
2019-03-03T06:11:30.851Z,100712.97
2019-03-03T06:16:32.428Z,100710.39
2019-03-03T06:21:34.006Z,100707.84
2019-03-03T06:26:35.626Z,100702.18
2019-03-03T06:31:37.198Z,100699.23
2019-03-03T06:36:38.809Z,100689.64
2019-03-03T06:41:40.689Z,100681.88
2019-03-03T06:46:43.352Z,100684.44
2019-03-03T06:51:44.990Z,100681.70
2019-03-03T06:56:50.976Z,100676.98
2019-03-03T07:01:52.614Z,100674.41
2019-03-03T07:06:54.143Z,100663.98
2019-03-03T07:11:55.761Z,100663.98
2019-03-03T07:16:57.688Z,100671.48
2019-03-03T07:21:59.610Z,100673.69
2019-03-03T07:27:02.297Z,100665.52
2019-03-03T07:32:03.892Z,100663.34
2019-03-03T07:37:05.439Z,100665.14
2019-03-03T07:42:07.168Z,100659.90
2019-03-03T07:47:09.847Z,100666.57
2019-03-03T07:52:11.746Z,100661.06
2019-03-03T07:57:13.298Z,100665.83
2019-03-03T08:02:14.895Z,100662.48
2019-03-03T08:07:16.802Z,100665.22
2019-03-03T08:12:18.407Z,100669.16
2019-03-03T08:17:20.069Z,100662.18
2019-03-03T08:22:21.720Z,100669.72
2019-03-03T08:27:23.416Z,100676.36
2019-03-03T08:32:25.129Z,100672.05
2019-03-03T08:37:26.698Z,100661.54
2019-03-03T08:42:28.289Z,100676.61
2019-03-03T08:47:31.152Z,100663.29
2019-03-03T08:52:32.728Z,100660.09
2019-03-03T08:57:34.377Z,100661.96
2019-03-03T09:02:35.931Z,100663.86
2019-03-03T09:07:37.595Z,100651.67
2019-03-03T09:12:39.182Z,100661.97
2019-03-03T09:17:40.789Z,100659.55
2019-03-03T09:22:42.493Z,100664.36
2019-03-03T09:27:44.080Z,100652.64
2019-03-03T09:32:45.671Z,100667.95
2019-03-03T09:37:47.376Z,100666.19
2019-03-03T09:42:48.943Z,100655.50
2019-03-03T09:47:50.951Z,100665.25
2019-03-03T09:52:52.678Z,100664.63
2019-03-03T09:57:54.825Z,100651.41
2019-03-03T10:02:56.394Z,100653.75
2019-03-03T10:07:57.968Z,100644.46
2019-03-03T10:12:59.569Z,100642.05
2019-03-03T10:18:01.187Z,100635.34
2019-03-03T10:23:02.773Z,100638.26
2019-03-03T10:28:04.349Z,100634.39
2019-03-03T10:33:05.964Z,100636.15
2019-03-03T10:38:07.594Z,100628.34
2019-03-03T10:43:09.226Z,100630.89
2019-03-03T10:48:10.922Z,100633.28
2019-03-03T10:53:12.548Z,100633.79
2019-03-03T10:58:14.114Z,100623.05
2019-03-03T11:03:15.769Z,100611.80
2019-03-03T11:08:17.378Z,100613.40
2019-03-03T11:13:18.954Z,100609.87
2019-03-03T11:18:20.959Z,100603.37
2019-03-03T11:23:22.530Z,100617.48
2019-03-03T11:28:24.848Z,100603.37
2019-03-03T11:33:26.463Z,100600.06
2019-03-03T11:38:28.373Z,100600.91
2019-03-03T11:43:29.940Z,100601.30
2019-03-03T11:48:31.527Z,100599.56
2019-03-03T11:53:33.140Z,100590.68
2019-03-03T11:58:34.659Z,100590.28
2019-03-03T12:03:36.694Z,100584.04
2019-03-03T12:08:38.255Z,100580.88
2019-03-03T12:13:39.914Z,100575.20
2019-03-03T12:18:41.870Z,100568.64
2019-03-03T12:23:43.503Z,100560.55
2019-03-03T12:28:45.118Z,100554.89
2019-03-03T12:33:46.661Z,100551.66
2019-03-03T12:38:48.676Z,100534.46
2019-03-03T12:43:50.262Z,100532.72
2019-03-03T12:48:52.224Z,100522.83
2019-03-03T12:53:54.118Z,100524.05
2019-03-03T12:58:55.711Z,100505.06
2019-03-03T13:03:57.309Z,100494.93
2019-03-03T13:08:59.773Z,100492.56
2019-03-03T13:14:01.727Z,100490.74
2019-03-03T13:19:03.381Z,100484.14
2019-03-03T13:24:05.125Z,100466.55
2019-03-03T13:29:06.712Z,100464.45
2019-03-03T13:34:08.334Z,100451.75
2019-03-03T13:39:10.571Z,100457.03
2019-03-03T13:44:12.326Z,100448.49
2019-03-03T13:49:13.907Z,100444.45
2019-03-03T13:54:15.538Z,100428.75
2019-03-03T13:59:17.160Z,100418.30
2019-03-03T14:04:18.744Z,100408.99
2019-03-03T14:09:20.773Z,100400.20
2019-03-03T14:14:23.074Z,100383.89
2019-03-03T14:19:24.683Z,100385.16
2019-03-03T14:24:26.303Z,100374.20
2019-03-03T14:29:30.920Z,100376.36
2019-03-03T14:34:32.982Z,100369.66
2019-03-03T14:39:34.853Z,100350.14
2019-03-03T14:44:36.397Z,100341.40
2019-03-03T14:49:38.047Z,100333.80
2019-03-03T14:54:40.065Z,100324.41
2019-03-03T14:59:42.024Z,100316.05
2019-03-03T15:04:43.681Z,100321.23
2019-03-03T15:09:47.811Z,100306.84
2019-03-03T15:14:49.744Z,100266.01
2019-03-03T15:19:52.472Z,100297.20
2019-03-03T15:24:54.298Z,100288.00
2019-03-03T15:29:55.965Z,100279.67
2019-03-03T15:34:58.041Z,100273.94
2019-03-03T15:39:59.713Z,100271.28
2019-03-03T15:45:01.661Z,100255.86
2019-03-03T15:50:03.738Z,100258.95
2019-03-03T15:55:06.828Z,100248.36
2019-03-03T16:00:16.835Z,100253.84
2019-03-03T16:05:19.027Z,100251.63
2019-03-03T16:10:20.653Z,100231.89
2019-03-03T16:15:23.681Z,100222.67
2019-03-03T16:20:25.240Z,100230.63
2019-03-03T16:25:26.890Z,100213.48
2019-03-03T16:30:28.536Z,100214.35
2019-03-03T16:35:30.135Z,100203.41
2019-03-03T16:40:39.246Z,100188.38
2019-03-03T16:45:36.791Z,100178.68
2019-03-03T16:50:38.373Z,100171.56
2019-03-03T16:55:40.063Z,100168.04
2019-03-03T17:00:41.722Z,100167.96
2019-03-03T17:05:44.532Z,100145.53
2019-03-03T17:10:46.223Z,100138.89
2019-03-03T17:15:47.929Z,100137.10
2019-03-03T17:20:49.614Z,100130.46
2019-03-03T17:25:51.198Z,100111.56
2019-03-03T17:30:52.973Z,100098.81
2019-03-03T17:35:54.619Z,100093.53
2019-03-03T17:40:56.704Z,100083.88
2019-03-03T17:45:58.262Z,100076.46
2019-03-03T17:51:00.246Z,100066.46
2019-03-03T17:56:02.343Z,100066.00
2019-03-03T18:01:04.431Z,100050.22
2019-03-03T18:06:06.109Z,100045.00
2019-03-03T18:11:07.782Z,100042.38
2019-03-03T18:16:09.417Z,100031.42
2019-03-03T18:21:11.509Z,100030.05
2019-03-03T18:26:15.831Z,100007.44
2019-03-03T18:31:18.713Z,99987.94
2019-03-03T18:36:20.444Z,99976.41
2019-03-03T18:41:22.205Z,99957.95
2019-03-03T18:46:24.447Z,99953.22
2019-03-03T18:51:26.132Z,99955.97
2019-03-03T18:56:27.716Z,99939.78
2019-03-03T19:01:29.318Z,99927.59
2019-03-03T19:06:31.007Z,99918.84
2019-03-03T19:11:33.102Z,99893.41
2019-03-03T19:16:35.368Z,99906.61
2019-03-03T19:21:37.053Z,99887.83
2019-03-03T19:26:38.966Z,99892.30
2019-03-03T19:31:40.745Z,99892.25
2019-03-03T19:36:42.499Z,99872.83
2019-03-03T19:41:44.054Z,99873.26
2019-03-03T19:46:45.608Z,99871.63
2019-03-03T19:51:47.343Z,99866.85
2019-03-03T19:56:49.610Z,99851.16
2019-03-03T20:01:52.077Z,99836.22
2019-03-03T20:06:53.708Z,99859.47
2019-03-03T20:11:55.689Z,99840.59
2019-03-03T20:16:57.664Z,99836.58
2019-03-03T20:21:59.580Z,99834.81
2019-03-03T20:27:01.338Z,99820.01
2019-03-03T20:32:03.212Z,99803.30
2019-03-03T20:37:04.900Z,99794.14
2019-03-03T20:42:06.564Z,99779.62
2019-03-03T20:47:08.242Z,99791.08
2019-03-03T20:52:09.825Z,99776.61
2019-03-03T20:57:11.405Z,99770.04
2019-03-03T21:02:13.019Z,99753.87
2019-03-03T21:07:14.626Z,99742.03
2019-03-03T21:12:16.213Z,99731.52
2019-03-03T21:17:17.841Z,99721.88
2019-03-03T21:22:19.503Z,99705.67
2019-03-03T21:27:21.208Z,99704.83
2019-03-03T21:32:22.772Z,99708.84
2019-03-03T21:37:24.851Z,99686.49
2019-03-03T21:42:26.412Z,99675.11
2019-03-03T21:47:28.481Z,99651.86
2019-03-03T21:52:30.078Z,99639.12
2019-03-03T21:57:31.993Z,99619.36
2019-03-03T22:02:33.635Z,99601.83
2019-03-03T22:07:35.234Z,99584.30
2019-03-03T22:12:36.841Z,99596.56
2019-03-03T22:17:38.442Z,99586.08
2019-03-03T22:22:40.055Z,99608.94
2019-03-03T22:27:42.026Z,99598.41
2019-03-03T22:32:43.625Z,99589.20
2019-03-03T22:37:45.844Z,99591.41
2019-03-03T22:42:47.449Z,99569.08
2019-03-03T22:47:49.023Z,99538.32
2019-03-03T22:52:50.632Z,99538.81
2019-03-03T22:57:52.184Z,99544.53
2019-03-03T23:02:54.032Z,99549.41
2019-03-03T23:08:32.896Z,99533.18
2019-03-03T23:14:11.652Z,99517.81
2019-03-03T23:19:48.213Z,99529.66
2019-03-03T23:25:38.593Z,99532.78
2019-03-03T23:30:40.563Z,99524.45
2019-03-03T23:35:42.703Z,99505.63
2019-03-03T23:40:44.260Z,99499.48
2019-03-03T23:45:46.401Z,99495.58
2019-03-03T23:50:47.989Z,99485.08
2019-03-03T23:55:49.550Z,99472.38
